sensor_id;sensor_type;location;lat;lon;timestamp;temperature;humidity
10294;DHT22;5192;50.328;7.610;2023-07-22T00:00:40;11.70;99.90
10294;DHT22;5192;50.328;7.610;2023-07-22T00:03:08;11.70;99.90
10294;DHT22;5192;50.328;7.610;2023-07-22T00:05:34;11.70;99.90
10294;DHT22;5192;50.328;7.610;2023-07-22T00:08:01;11.70;99.90
10294;DHT22;5192;50.328;7.610;2023-07-22T00:10:28;11.70;99.90
10294;DHT22;5192;50.328;7.610;2023-07-22T00:12:55;11.60;99.90
10294;DHT22;5192;50.328;7.610;2023-07-22T00:15:23;11.60;99.90
10294;DHT22;5192;50.328;7.610;2023-07-22T00:17:51;11.50;99.90
10294;DHT22;5192;50.328;7.610;2023-07-22T00:20:19;11.50;99.90
10294;DHT22;5192;50.328;7.610;2023-07-22T00:22:47;11.50;99.90
10294;DHT22;5192;50.328;7.610;2023-07-22T00:25:14;11.40;99.90
10294;DHT22;5192;50.328;7.610;2023-07-22T00:27:41;11.40;99.90
10294;DHT22;5192;50.328;7.610;2023-07-22T00:30:08;11.40;99.90
10294;DHT22;5192;50.328;7.610;2023-07-22T00:32:35;11.40;99.90
10294;DHT22;5192;50.328;7.610;2023-07-22T00:35:07;11.40;99.90
10294;DHT22;5192;50.328;7.610;2023-07-22T00:37:36;11.30;99.90
10294;DHT22;5192;50.328;7.610;2023-07-22T00:40:04;11.30;99.90
10294;DHT22;5192;50.328;7.610;2023-07-22T00:42:32;11.20;99.90
10294;DHT22;5192;50.328;7.610;2023-07-22T00:45:00;11.30;99.90
10294;DHT22;5192;50.328;7.610;2023-07-22T00:47:27;11.20;99.90
10294;DHT22;5192;50.328;7.610;2023-07-22T00:49:56;11.20;99.90
10294;DHT22;5192;50.328;7.610;2023-07-22T00:52:25;11.20;99.90
10294;DHT22;5192;50.328;7.610;2023-07-22T00:54:56;11.20;99.90
10294;DHT22;5192;50.328;7.610;2023-07-22T00:57:24;11.20;99.90
10294;DHT22;5192;50.328;7.610;2023-07-22T00:59:51;11.20;99.90
10294;DHT22;5192;50.328;7.610;2023-07-22T01:02:21;11.10;99.90
10294;DHT22;5192;50.328;7.610;2023-07-22T01:04:50;11.10;99.90
10294;DHT22;5192;50.328;7.610;2023-07-22T01:07:19;11.00;99.90
10294;DHT22;5192;50.328;7.610;2023-07-22T01:09:46;10.90;99.90
10294;DHT22;5192;50.328;7.610;2023-07-22T01:12:13;10.90;99.90
10294;DHT22;5192;50.328;7.610;2023-07-22T01:14:42;10.90;99.90
10294;DHT22;5192;50.328;7.610;2023-07-22T01:17:28;10.90;99.90
10294;DHT22;5192;50.328;7.610;2023-07-22T01:19:56;10.90;99.90
10294;DHT22;5192;50.328;7.610;2023-07-22T01:22:23;10.80;99.90
10294;DHT22;5192;50.328;7.610;2023-07-22T01:24:50;10.80;99.90
10294;DHT22;5192;50.328;7.610;2023-07-22T01:27:17;10.80;99.90
10294;DHT22;5192;50.328;7.610;2023-07-22T01:29:42;10.80;99.90
10294;DHT22;5192;50.328;7.610;2023-07-22T01:32:09;10.90;99.90
10294;DHT22;5192;50.328;7.610;2023-07-22T01:34:36;10.80;99.90
10294;DHT22;5192;50.328;7.610;2023-07-22T01:37:05;10.80;99.90
10294;DHT22;5192;50.328;7.610;2023-07-22T01:39:30;10.80;99.90
10294;DHT22;5192;50.328;7.610;2023-07-22T01:41:58;10.90;99.90
10294;DHT22;5192;50.328;7.610;2023-07-22T01:44:26;10.70;99.90
10294;DHT22;5192;50.328;7.610;2023-07-22T01:46:54;10.60;99.90
10294;DHT22;5192;50.328;7.610;2023-07-22T01:49:19;10.70;99.90
10294;DHT22;5192;50.328;7.610;2023-07-22T01:51:48;10.70;99.90
10294;DHT22;5192;50.328;7.610;2023-07-22T01:54:16;10.60;99.90
10294;DHT22;5192;50.328;7.610;2023-07-22T01:56:43;10.60;99.90
10294;DHT22;5192;50.328;7.610;2023-07-22T01:59:08;10.60;99.90
10294;DHT22;5192;50.328;7.610;2023-07-22T02:01:37;10.50;99.90
10294;DHT22;5192;50.328;7.610;2023-07-22T02:04:05;10.50;99.90
10294;DHT22;5192;50.328;7.610;2023-07-22T02:06:34;10.50;99.90
10294;DHT22;5192;50.328;7.610;2023-07-22T02:09:02;10.50;99.90
10294;DHT22;5192;50.328;7.610;2023-07-22T02:11:38;10.50;99.90
10294;DHT22;5192;50.328;7.610;2023-07-22T02:14:05;10.60;99.90
10294;DHT22;5192;50.328;7.610;2023-07-22T02:16:34;10.40;99.90
10294;DHT22;5192;50.328;7.610;2023-07-22T02:19:03;10.40;99.90
10294;DHT22;5192;50.328;7.610;2023-07-22T02:21:29;10.40;99.90
10294;DHT22;5192;50.328;7.610;2023-07-22T02:23:56;10.40;99.90
10294;DHT22;5192;50.328;7.610;2023-07-22T02:26:23;10.40;99.90
10294;DHT22;5192;50.328;7.610;2023-07-22T02:28:50;10.30;99.90
10294;DHT22;5192;50.328;7.610;2023-07-22T02:31:16;10.30;99.90
10294;DHT22;5192;50.328;7.610;2023-07-22T02:33:43;10.40;99.90
10294;DHT22;5192;50.328;7.610;2023-07-22T02:36:10;10.40;99.90
10294;DHT22;5192;50.328;7.610;2023-07-22T02:38:38;10.50;99.90
10294;DHT22;5192;50.328;7.610;2023-07-22T02:41:05;10.40;99.90
10294;DHT22;5192;50.328;7.610;2023-07-22T02:43:37;10.30;99.90
10294;DHT22;5192;50.328;7.610;2023-07-22T02:46:04;10.30;99.90
10294;DHT22;5192;50.328;7.610;2023-07-22T02:48:36;10.30;99.90
10294;DHT22;5192;50.328;7.610;2023-07-22T02:51:06;10.30;99.90
10294;DHT22;5192;50.328;7.610;2023-07-22T02:53:33;10.20;99.90
10294;DHT22;5192;50.328;7.610;2023-07-22T02:56:04;10.20;99.90
10294;DHT22;5192;50.328;7.610;2023-07-22T02:58:31;10.20;99.90
10294;DHT22;5192;50.328;7.610;2023-07-22T03:00:57;10.30;99.90
10294;DHT22;5192;50.328;7.610;2023-07-22T03:03:26;10.40;99.90
10294;DHT22;5192;50.328;7.610;2023-07-22T03:05:55;10.50;99.90
10294;DHT22;5192;50.328;7.610;2023-07-22T03:08:24;10.40;99.90
10294;DHT22;5192;50.328;7.610;2023-07-22T03:10:53;10.40;99.90
10294;DHT22;5192;50.328;7.610;2023-07-22T03:13:20;10.40;99.90
10294;DHT22;5192;50.328;7.610;2023-07-22T03:15:47;10.30;99.90
10294;DHT22;5192;50.328;7.610;2023-07-22T03:18:13;10.50;99.90
10294;DHT22;5192;50.328;7.610;2023-07-22T03:20:40;10.30;99.90
10294;DHT22;5192;50.328;7.610;2023-07-22T03:23:09;10.30;99.90
10294;DHT22;5192;50.328;7.610;2023-07-22T03:25:37;10.20;99.90
10294;DHT22;5192;50.328;7.610;2023-07-22T03:28:06;10.10;99.90
10294;DHT22;5192;50.328;7.610;2023-07-22T03:30:34;10.10;99.90
10294;DHT22;5192;50.328;7.610;2023-07-22T03:33:00;10.10;99.90
10294;DHT22;5192;50.328;7.610;2023-07-22T03:35:27;10.10;99.90
10294;DHT22;5192;50.328;7.610;2023-07-22T03:37:55;10.10;99.90
10294;DHT22;5192;50.328;7.610;2023-07-22T03:40:20;10.10;99.90
10294;DHT22;5192;50.328;7.610;2023-07-22T03:42:55;10.20;99.90
10294;DHT22;5192;50.328;7.610;2023-07-22T03:45:26;10.00;99.90
10294;DHT22;5192;50.328;7.610;2023-07-22T03:48:00;10.00;99.90
10294;DHT22;5192;50.328;7.610;2023-07-22T03:50:26;9.90;99.90
10294;DHT22;5192;50.328;7.610;2023-07-22T03:52:55;9.90;99.90
10294;DHT22;5192;50.328;7.610;2023-07-22T03:55:23;9.90;99.90
10294;DHT22;5192;50.328;7.610;2023-07-22T03:57:51;9.90;99.90
10294;DHT22;5192;50.328;7.610;2023-07-22T04:00:19;9.90;99.90
10294;DHT22;5192;50.328;7.610;2023-07-22T04:02:46;9.90;99.90
10294;DHT22;5192;50.328;7.610;2023-07-22T04:05:15;9.90;99.90
10294;DHT22;5192;50.328;7.610;2023-07-22T04:07:44;9.90;99.90
10294;DHT22;5192;50.328;7.610;2023-07-22T04:10:11;9.90;99.90
10294;DHT22;5192;50.328;7.610;2023-07-22T04:12:41;9.90;99.90
10294;DHT22;5192;50.328;7.610;2023-07-22T04:15:10;9.90;99.90
10294;DHT22;5192;50.328;7.610;2023-07-22T04:17:36;9.90;99.90
10294;DHT22;5192;50.328;7.610;2023-07-22T04:20:04;9.90;99.90
10294;DHT22;5192;50.328;7.610;2023-07-22T04:22:33;9.90;99.90
10294;DHT22;5192;50.328;7.610;2023-07-22T04:25:02;10.00;99.90
10294;DHT22;5192;50.328;7.610;2023-07-22T04:27:31;10.00;99.90
10294;DHT22;5192;50.328;7.610;2023-07-22T04:29:58;10.00;99.90
10294;DHT22;5192;50.328;7.610;2023-07-22T04:32:25;10.00;99.90
10294;DHT22;5192;50.328;7.610;2023-07-22T04:34:52;10.10;99.90
10294;DHT22;5192;50.328;7.610;2023-07-22T04:37:19;10.20;99.90
10294;DHT22;5192;50.328;7.610;2023-07-22T04:39:49;10.20;99.90
10294;DHT22;5192;50.328;7.610;2023-07-22T04:42:18;10.20;99.90
10294;DHT22;5192;50.328;7.610;2023-07-22T04:44:45;10.20;99.90
10294;DHT22;5192;50.328;7.610;2023-07-22T04:47:12;10.20;99.90
10294;DHT22;5192;50.328;7.610;2023-07-22T04:49:39;10.20;99.90
10294;DHT22;5192;50.328;7.610;2023-07-22T04:52:06;10.30;99.90
10294;DHT22;5192;50.328;7.610;2023-07-22T04:54:33;10.30;99.90
10294;DHT22;5192;50.328;7.610;2023-07-22T04:57:00;10.30;99.90
10294;DHT22;5192;50.328;7.610;2023-07-22T04:59:28;10.30;99.90
10294;DHT22;5192;50.328;7.610;2023-07-22T05:01:55;10.30;99.90
10294;DHT22;5192;50.328;7.610;2023-07-22T05:04:22;10.40;99.90
10294;DHT22;5192;50.328;7.610;2023-07-22T05:06:48;10.40;99.90
10294;DHT22;5192;50.328;7.610;2023-07-22T05:09:15;10.50;99.90
10294;DHT22;5192;50.328;7.610;2023-07-22T05:11:44;10.60;99.90
10294;DHT22;5192;50.328;7.610;2023-07-22T05:14:11;10.40;99.90
10294;DHT22;5192;50.328;7.610;2023-07-22T05:16:38;10.50;99.90
10294;DHT22;5192;50.328;7.610;2023-07-22T05:19:05;10.50;99.90
10294;DHT22;5192;50.328;7.610;2023-07-22T05:21:36;10.60;99.90
10294;DHT22;5192;50.328;7.610;2023-07-22T05:24:03;10.70;99.90
10294;DHT22;5192;50.328;7.610;2023-07-22T05:26:30;10.80;99.90
10294;DHT22;5192;50.328;7.610;2023-07-22T05:29:00;10.80;99.90
10294;DHT22;5192;50.328;7.610;2023-07-22T05:31:28;10.90;99.90
10294;DHT22;5192;50.328;7.610;2023-07-22T05:33:55;10.90;99.90
10294;DHT22;5192;50.328;7.610;2023-07-22T05:36:21;11.00;99.90
10294;DHT22;5192;50.328;7.610;2023-07-22T05:38:47;11.10;99.90
10294;DHT22;5192;50.328;7.610;2023-07-22T05:41:13;11.10;99.90
10294;DHT22;5192;50.328;7.610;2023-07-22T05:43:38;11.40;99.90
10294;DHT22;5192;50.328;7.610;2023-07-22T05:46:05;11.30;99.90
10294;DHT22;5192;50.328;7.610;2023-07-22T05:48:33;11.40;99.90
10294;DHT22;5192;50.328;7.610;2023-07-22T05:51:01;11.40;99.90
10294;DHT22;5192;50.328;7.610;2023-07-22T05:53:32;11.50;99.90
10294;DHT22;5192;50.328;7.610;2023-07-22T05:56:00;11.50;99.90
10294;DHT22;5192;50.328;7.610;2023-07-22T05:58:27;11.60;99.90
10294;DHT22;5192;50.328;7.610;2023-07-22T06:00:54;11.70;99.90
10294;DHT22;5192;50.328;7.610;2023-07-22T06:03:22;11.80;99.90
10294;DHT22;5192;50.328;7.610;2023-07-22T06:05:50;11.80;99.90
10294;DHT22;5192;50.328;7.610;2023-07-22T06:08:17;11.90;99.90
10294;DHT22;5192;50.328;7.610;2023-07-22T06:10:42;12.00;99.90
10294;DHT22;5192;50.328;7.610;2023-07-22T06:13:09;12.00;99.90
10294;DHT22;5192;50.328;7.610;2023-07-22T06:15:37;12.00;99.90
10294;DHT22;5192;50.328;7.610;2023-07-22T06:18:05;12.10;99.90
10294;DHT22;5192;50.328;7.610;2023-07-22T06:20:37;12.20;99.90
10294;DHT22;5192;50.328;7.610;2023-07-22T06:23:04;12.30;99.90
10294;DHT22;5192;50.328;7.610;2023-07-22T06:25:33;12.30;99.90
10294;DHT22;5192;50.328;7.610;2023-07-22T06:27:59;12.30;99.90
10294;DHT22;5192;50.328;7.610;2023-07-22T06:30:26;12.50;99.90
10294;DHT22;5192;50.328;7.610;2023-07-22T06:32:53;12.50;99.90
10294;DHT22;5192;50.328;7.610;2023-07-22T06:35:20;12.60;99.90
10294;DHT22;5192;50.328;7.610;2023-07-22T06:37:46;12.60;99.90
10294;DHT22;5192;50.328;7.610;2023-07-22T06:40:13;12.80;99.90
10294;DHT22;5192;50.328;7.610;2023-07-22T06:42:41;12.80;99.90
10294;DHT22;5192;50.328;7.610;2023-07-22T06:45:10;12.90;99.90
10294;DHT22;5192;50.328;7.610;2023-07-22T06:47:37;13.00;99.90
10294;DHT22;5192;50.328;7.610;2023-07-22T06:50:04;13.10;98.90
10294;DHT22;5192;50.328;7.610;2023-07-22T06:52:34;13.20;95.70
10294;DHT22;5192;50.328;7.610;2023-07-22T06:55:00;13.30;90.60
10294;DHT22;5192;50.328;7.610;2023-07-22T06:57:29;13.40;92.40
10294;DHT22;5192;50.328;7.610;2023-07-22T06:59:56;13.60;87.90
10294;DHT22;5192;50.328;7.610;2023-07-22T07:02:25;13.70;90.10
10294;DHT22;5192;50.328;7.610;2023-07-22T07:04:56;13.80;85.20
10294;DHT22;5192;50.328;7.610;2023-07-22T07:07:24;13.90;84.00
10294;DHT22;5192;50.328;7.610;2023-07-22T07:09:53;14.10;83.20
10294;DHT22;5192;50.328;7.610;2023-07-22T07:12:19;14.20;81.70
10294;DHT22;5192;50.328;7.610;2023-07-22T07:14:51;14.30;80.40
10294;DHT22;5192;50.328;7.610;2023-07-22T07:17:21;14.40;81.30
10294;DHT22;5192;50.328;7.610;2023-07-22T07:19:48;14.60;78.70
10294;DHT22;5192;50.328;7.610;2023-07-22T07:22:15;14.60;76.60
10294;DHT22;5192;50.328;7.610;2023-07-22T07:24:43;14.70;73.80
10294;DHT22;5192;50.328;7.610;2023-07-22T07:27:09;14.80;74.00
10294;DHT22;5192;50.328;7.610;2023-07-22T07:29:37;14.90;72.00
10294;DHT22;5192;50.328;7.610;2023-07-22T07:32:04;15.00;68.50
10294;DHT22;5192;50.328;7.610;2023-07-22T07:34:33;15.10;65.70
10294;DHT22;5192;50.328;7.610;2023-07-22T07:37:01;15.30;64.80
10294;DHT22;5192;50.328;7.610;2023-07-22T07:39:28;15.60;65.40
10294;DHT22;5192;50.328;7.610;2023-07-22T07:41:55;15.50;65.10
10294;DHT22;5192;50.328;7.610;2023-07-22T07:44:22;15.60;62.80
10294;DHT22;5192;50.328;7.610;2023-07-22T07:46:49;15.80;61.90
10294;DHT22;5192;50.328;7.610;2023-07-22T07:49:17;15.90;59.00
10294;DHT22;5192;50.328;7.610;2023-07-22T07:51:44;16.00;56.50
10294;DHT22;5192;50.328;7.610;2023-07-22T07:54:12;16.10;56.50
10294;DHT22;5192;50.328;7.610;2023-07-22T07:56:38;16.20;51.50
10294;DHT22;5192;50.328;7.610;2023-07-22T07:59:05;16.40;46.90
10294;DHT22;5192;50.328;7.610;2023-07-22T08:01:36;16.60;44.80
10294;DHT22;5192;50.328;7.610;2023-07-22T08:04:09;16.60;45.30
10294;DHT22;5192;50.328;7.610;2023-07-22T08:06:36;16.80;42.50
10294;DHT22;5192;50.328;7.610;2023-07-22T08:09:04;16.90;38.80
10294;DHT22;5192;50.328;7.610;2023-07-22T08:11:32;17.00;37.70
10294;DHT22;5192;50.328;7.610;2023-07-22T08:13:59;17.30;29.80
10294;DHT22;5192;50.328;7.610;2023-07-22T08:16:27;17.50;34.70
10294;DHT22;5192;50.328;7.610;2023-07-22T08:18:55;17.90;30.60
10294;DHT22;5192;50.328;7.610;2023-07-22T08:21:22;18.10;21.30
10294;DHT22;5192;50.328;7.610;2023-07-22T08:23:50;18.30;20.90
10294;DHT22;5192;50.328;7.610;2023-07-22T08:26:18;18.50;20.80
10294;DHT22;5192;50.328;7.610;2023-07-22T08:28:48;18.70;13.70
10294;DHT22;5192;50.328;7.610;2023-07-22T08:31:16;18.90;16.20
10294;DHT22;5192;50.328;7.610;2023-07-22T08:33:44;19.00;5.60
10294;DHT22;5192;50.328;7.610;2023-07-22T08:36:11;19.10;1.00
10294;DHT22;5192;50.328;7.610;2023-07-22T08:38:38;19.10;1.00
10294;DHT22;5192;50.328;7.610;2023-07-22T08:41:05;19.20;1.00
10294;DHT22;5192;50.328;7.610;2023-07-22T08:43:34;19.30;1.00
10294;DHT22;5192;50.328;7.610;2023-07-22T08:46:02;19.40;1.00
10294;DHT22;5192;50.328;7.610;2023-07-22T08:48:33;19.50;1.00
10294;DHT22;5192;50.328;7.610;2023-07-22T08:51:09;19.70;1.00
10294;DHT22;5192;50.328;7.610;2023-07-22T08:53:38;19.80;1.00
10294;DHT22;5192;50.328;7.610;2023-07-22T08:56:04;19.80;1.00
10294;DHT22;5192;50.328;7.610;2023-07-22T08:58:31;19.90;1.00
10294;DHT22;5192;50.328;7.610;2023-07-22T09:00:59;20.10;1.00
10294;DHT22;5192;50.328;7.610;2023-07-22T09:03:27;20.40;1.00
10294;DHT22;5192;50.328;7.610;2023-07-22T09:05:55;20.50;1.00
10294;DHT22;5192;50.328;7.610;2023-07-22T09:08:21;20.60;1.00
10294;DHT22;5192;50.328;7.610;2023-07-22T09:10:48;20.70;1.00
10294;DHT22;5192;50.328;7.610;2023-07-22T09:13:17;20.70;1.00
10294;DHT22;5192;50.328;7.610;2023-07-22T09:15:49;20.90;1.00
10294;DHT22;5192;50.328;7.610;2023-07-22T09:18:17;20.90;1.00
10294;DHT22;5192;50.328;7.610;2023-07-22T09:20:44;21.10;1.00
10294;DHT22;5192;50.328;7.610;2023-07-22T09:23:11;21.00;1.00
10294;DHT22;5192;50.328;7.610;2023-07-22T09:25:39;21.10;1.00
10294;DHT22;5192;50.328;7.610;2023-07-22T09:28:05;21.40;1.00
10294;DHT22;5192;50.328;7.610;2023-07-22T09:30:37;21.30;1.00
10294;DHT22;5192;50.328;7.610;2023-07-22T09:33:29;21.20;1.00
10294;DHT22;5192;50.328;7.610;2023-07-22T09:35:55;21.10;1.00
10294;DHT22;5192;50.328;7.610;2023-07-22T09:38:26;20.90;1.00
10294;DHT22;5192;50.328;7.610;2023-07-22T09:40:55;21.20;1.00
10294;DHT22;5192;50.328;7.610;2023-07-22T09:43:26;21.50;1.00
10294;DHT22;5192;50.328;7.610;2023-07-22T09:45:53;21.60;1.00
10294;DHT22;5192;50.328;7.610;2023-07-22T09:48:22;21.60;1.00
10294;DHT22;5192;50.328;7.610;2023-07-22T09:50:59;21.60;1.00
10294;DHT22;5192;50.328;7.610;2023-07-22T09:53:27;21.30;1.00
10294;DHT22;5192;50.328;7.610;2023-07-22T09:55:52;21.40;1.00
10294;DHT22;5192;50.328;7.610;2023-07-22T09:58:20;21.40;1.00
10294;DHT22;5192;50.328;7.610;2023-07-22T10:00:54;21.00;1.00
10294;DHT22;5192;50.328;7.610;2023-07-22T10:03:29;21.20;1.00
10294;DHT22;5192;50.328;7.610;2023-07-22T10:06:04;21.60;1.00
10294;DHT22;5192;50.328;7.610;2023-07-22T10:08:34;21.70;1.00
10294;DHT22;5192;50.328;7.610;2023-07-22T10:11:06;21.80;1.00
10294;DHT22;5192;50.328;7.610;2023-07-22T10:13:35;21.80;1.00
10294;DHT22;5192;50.328;7.610;2023-07-22T10:16:05;21.90;1.00
10294;DHT22;5192;50.328;7.610;2023-07-22T10:18:32;21.80;1.00
10294;DHT22;5192;50.328;7.610;2023-07-22T10:21:01;21.70;1.00
10294;DHT22;5192;50.328;7.610;2023-07-22T10:23:29;21.50;1.00
10294;DHT22;5192;50.328;7.610;2023-07-22T10:25:58;21.50;1.00
10294;DHT22;5192;50.328;7.610;2023-07-22T10:28:26;21.50;1.00
10294;DHT22;5192;50.328;7.610;2023-07-22T10:30:58;21.50;1.00
10294;DHT22;5192;50.328;7.610;2023-07-22T10:33:25;21.60;1.00
10294;DHT22;5192;50.328;7.610;2023-07-22T10:36:13;21.70;1.00
10294;DHT22;5192;50.328;7.610;2023-07-22T10:38:41;21.60;1.00
10294;DHT22;5192;50.328;7.610;2023-07-22T10:41:17;21.70;1.00
10294;DHT22;5192;50.328;7.610;2023-07-22T10:43:56;21.70;1.00
10294;DHT22;5192;50.328;7.610;2023-07-22T10:46:36;21.80;1.00
10294;DHT22;5192;50.328;7.610;2023-07-22T10:49:23;22.00;1.00
10294;DHT22;5192;50.328;7.610;2023-07-22T10:51:51;22.10;1.00
10294;DHT22;5192;50.328;7.610;2023-07-22T10:54:38;22.30;1.00
10294;DHT22;5192;50.328;7.610;2023-07-22T10:57:24;22.30;1.00
10294;DHT22;5192;50.328;7.610;2023-07-22T10:59:52;22.60;1.00
10294;DHT22;5192;50.328;7.610;2023-07-22T11:02:26;22.70;1.00
10294;DHT22;5192;50.328;7.610;2023-07-22T11:04:55;22.60;1.00
10294;DHT22;5192;50.328;7.610;2023-07-22T11:07:33;22.70;1.00
10294;DHT22;5192;50.328;7.610;2023-07-22T11:10:14;23.00;1.00
10294;DHT22;5192;50.328;7.610;2023-07-22T11:12:44;23.10;1.00
10294;DHT22;5192;50.328;7.610;2023-07-22T11:15:31;23.00;1.00
10294;DHT22;5192;50.328;7.610;2023-07-22T11:17:59;22.50;1.00
10294;DHT22;5192;50.328;7.610;2023-07-22T11:20:26;22.30;1.00
10294;DHT22;5192;50.328;7.610;2023-07-22T11:22:57;22.00;1.00
10294;DHT22;5192;50.328;7.610;2023-07-22T11:25:26;22.10;1.00
10294;DHT22;5192;50.328;7.610;2023-07-22T11:27:53;22.10;1.00
10294;DHT22;5192;50.328;7.610;2023-07-22T11:30:24;22.30;1.00
10294;DHT22;5192;50.328;7.610;2023-07-22T11:32:50;22.30;1.00
10294;DHT22;5192;50.328;7.610;2023-07-22T11:35:17;22.10;1.00
10294;DHT22;5192;50.328;7.610;2023-07-22T11:37:46;22.20;1.00
10294;DHT22;5192;50.328;7.610;2023-07-22T11:40:14;22.40;1.00
10294;DHT22;5192;50.328;7.610;2023-07-22T11:42:42;22.40;1.00
10294;DHT22;5192;50.328;7.610;2023-07-22T11:45:14;22.60;1.00
10294;DHT22;5192;50.328;7.610;2023-07-22T11:47:42;22.50;1.00
10294;DHT22;5192;50.328;7.610;2023-07-22T11:50:11;22.60;1.00
10294;DHT22;5192;50.328;7.610;2023-07-22T11:52:37;22.70;1.00
10294;DHT22;5192;50.328;7.610;2023-07-22T11:55:03;22.30;1.00
10294;DHT22;5192;50.328;7.610;2023-07-22T11:57:30;22.30;1.00
10294;DHT22;5192;50.328;7.610;2023-07-22T11:59:58;22.40;1.00
10294;DHT22;5192;50.328;7.610;2023-07-22T12:02:27;22.50;1.00
10294;DHT22;5192;50.328;7.610;2023-07-22T12:05:23;22.60;1.00
10294;DHT22;5192;50.328;7.610;2023-07-22T12:07:50;22.60;1.00
10294;DHT22;5192;50.328;7.610;2023-07-22T12:10:18;22.90;1.00
10294;DHT22;5192;50.328;7.610;2023-07-22T12:12:47;23.10;1.00
10294;DHT22;5192;50.328;7.610;2023-07-22T12:18:04;22.80;1.00
10294;DHT22;5192;50.328;7.610;2023-07-22T12:20:34;23.00;1.00
10294;DHT22;5192;50.328;7.610;2023-07-22T12:23:03;23.00;1.00
10294;DHT22;5192;50.328;7.610;2023-07-22T12:25:31;23.30;1.00
10294;DHT22;5192;50.328;7.610;2023-07-22T12:27:58;23.50;1.00
10294;DHT22;5192;50.328;7.610;2023-07-22T12:30:31;23.70;1.00
10294;DHT22;5192;50.328;7.610;2023-07-22T12:32:59;23.70;1.00
10294;DHT22;5192;50.328;7.610;2023-07-22T12:35:26;23.90;1.00
10294;DHT22;5192;50.328;7.610;2023-07-22T12:37:55;23.90;1.00
10294;DHT22;5192;50.328;7.610;2023-07-22T12:40:22;23.70;1.00
10294;DHT22;5192;50.328;7.610;2023-07-22T12:42:51;23.60;1.00
10294;DHT22;5192;50.328;7.610;2023-07-22T12:45:18;23.60;1.00
10294;DHT22;5192;50.328;7.610;2023-07-22T12:47:44;23.60;1.00
10294;DHT22;5192;50.328;7.610;2023-07-22T12:50:11;23.70;1.00
10294;DHT22;5192;50.328;7.610;2023-07-22T12:52:39;23.80;1.00
10294;DHT22;5192;50.328;7.610;2023-07-22T12:55:10;24.00;1.00
10294;DHT22;5192;50.328;7.610;2023-07-22T12:57:36;23.50;1.00
10294;DHT22;5192;50.328;7.610;2023-07-22T13:00:04;23.60;1.00
10294;DHT22;5192;50.328;7.610;2023-07-22T13:02:39;23.70;1.00
10294;DHT22;5192;50.328;7.610;2023-07-22T13:05:08;23.90;1.00
10294;DHT22;5192;50.328;7.610;2023-07-22T13:07:36;24.10;1.00
10294;DHT22;5192;50.328;7.610;2023-07-22T13:10:03;23.90;1.00
10294;DHT22;5192;50.328;7.610;2023-07-22T13:12:33;24.20;1.00
10294;DHT22;5192;50.328;7.610;2023-07-22T13:15:00;24.60;1.00
10294;DHT22;5192;50.328;7.610;2023-07-22T13:17:28;24.70;1.00
10294;DHT22;5192;50.328;7.610;2023-07-22T13:19:56;24.80;1.00
10294;DHT22;5192;50.328;7.610;2023-07-22T13:22:25;25.00;1.00
10294;DHT22;5192;50.328;7.610;2023-07-22T13:24:51;25.10;1.00
10294;DHT22;5192;50.328;7.610;2023-07-22T13:27:18;25.20;1.00
10294;DHT22;5192;50.328;7.610;2023-07-22T13:29:47;25.40;1.00
10294;DHT22;5192;50.328;7.610;2023-07-22T13:32:15;25.00;1.00
10294;DHT22;5192;50.328;7.610;2023-07-22T13:34:43;25.00;1.00
10294;DHT22;5192;50.328;7.610;2023-07-22T13:37:10;24.70;1.00
10294;DHT22;5192;50.328;7.610;2023-07-22T13:39:39;24.80;1.00
10294;DHT22;5192;50.328;7.610;2023-07-22T13:42:07;24.80;1.00
10294;DHT22;5192;50.328;7.610;2023-07-22T13:44:37;24.70;1.00
10294;DHT22;5192;50.328;7.610;2023-07-22T13:47:05;24.40;1.00
10294;DHT22;5192;50.328;7.610;2023-07-22T13:49:32;24.70;1.00
10294;DHT22;5192;50.328;7.610;2023-07-22T13:52:01;24.60;1.00
10294;DHT22;5192;50.328;7.610;2023-07-22T13:54:28;24.90;1.00
10294;DHT22;5192;50.328;7.610;2023-07-22T13:56:57;25.30;1.00
10294;DHT22;5192;50.328;7.610;2023-07-22T13:59:24;25.70;1.00
10294;DHT22;5192;50.328;7.610;2023-07-22T14:01:53;25.90;1.00
10294;DHT22;5192;50.328;7.610;2023-07-22T14:04:20;25.90;1.00
10294;DHT22;5192;50.328;7.610;2023-07-22T14:06:48;25.80;1.00
10294;DHT22;5192;50.328;7.610;2023-07-22T14:09:19;25.50;1.00
10294;DHT22;5192;50.328;7.610;2023-07-22T14:11:46;25.50;1.00
10294;DHT22;5192;50.328;7.610;2023-07-22T14:14:14;25.50;1.00
10294;DHT22;5192;50.328;7.610;2023-07-22T14:16:41;25.60;1.00
10294;DHT22;5192;50.328;7.610;2023-07-22T14:19:06;26.00;1.00
10294;DHT22;5192;50.328;7.610;2023-07-22T14:21:34;26.60;1.00
10294;DHT22;5192;50.328;7.610;2023-07-22T14:24:04;27.00;1.00
10294;DHT22;5192;50.328;7.610;2023-07-22T14:26:31;27.00;1.00
10294;DHT22;5192;50.328;7.610;2023-07-22T14:28:58;26.50;1.00
10294;DHT22;5192;50.328;7.610;2023-07-22T14:31:25;26.40;1.00
10294;DHT22;5192;50.328;7.610;2023-07-22T14:33:52;26.70;1.00
10294;DHT22;5192;50.328;7.610;2023-07-22T14:36:21;27.10;1.00
10294;DHT22;5192;50.328;7.610;2023-07-22T14:38:48;27.40;1.00
10294;DHT22;5192;50.328;7.610;2023-07-22T14:41:14;27.30;1.00
10294;DHT22;5192;50.328;7.610;2023-07-22T14:43:41;28.40;1.00
10294;DHT22;5192;50.328;7.610;2023-07-22T14:46:07;28.20;1.00
10294;DHT22;5192;50.328;7.610;2023-07-22T14:48:35;27.80;1.00
10294;DHT22;5192;50.328;7.610;2023-07-22T14:51:03;27.90;1.00
10294;DHT22;5192;50.328;7.610;2023-07-22T14:53:31;28.00;1.00
10294;DHT22;5192;50.328;7.610;2023-07-22T14:55:58;28.30;1.00
10294;DHT22;5192;50.328;7.610;2023-07-22T14:58:26;28.60;1.00
10294;DHT22;5192;50.328;7.610;2023-07-22T15:00:58;28.30;1.00
10294;DHT22;5192;50.328;7.610;2023-07-22T15:03:26;28.60;1.00
10294;DHT22;5192;50.328;7.610;2023-07-22T15:05:51;28.10;1.00
10294;DHT22;5192;50.328;7.610;2023-07-22T15:08:19;28.40;1.00
10294;DHT22;5192;50.328;7.610;2023-07-22T15:10:46;27.70;1.00
10294;DHT22;5192;50.328;7.610;2023-07-22T15:13:13;28.30;1.00
10294;DHT22;5192;50.328;7.610;2023-07-22T15:15:40;28.80;1.00
10294;DHT22;5192;50.328;7.610;2023-07-22T15:18:07;28.60;1.00
10294;DHT22;5192;50.328;7.610;2023-07-22T15:20:35;29.40;1.00
10294;DHT22;5192;50.328;7.610;2023-07-22T15:23:01;28.90;1.00
10294;DHT22;5192;50.328;7.610;2023-07-22T15:25:27;28.40;1.00
10294;DHT22;5192;50.328;7.610;2023-07-22T15:27:53;28.10;1.00
10294;DHT22;5192;50.328;7.610;2023-07-22T15:30:21;29.20;1.00
10294;DHT22;5192;50.328;7.610;2023-07-22T15:32:47;29.80;1.00
10294;DHT22;5192;50.328;7.610;2023-07-22T15:35:15;29.80;1.00
10294;DHT22;5192;50.328;7.610;2023-07-22T15:37:42;29.10;1.00
10294;DHT22;5192;50.328;7.610;2023-07-22T15:40:10;27.60;1.00
10294;DHT22;5192;50.328;7.610;2023-07-22T15:42:35;28.90;1.00
10294;DHT22;5192;50.328;7.610;2023-07-22T15:45:02;29.60;1.00
10294;DHT22;5192;50.328;7.610;2023-07-22T15:47:30;30.30;1.00
10294;DHT22;5192;50.328;7.610;2023-07-22T15:49:58;29.70;1.00
10294;DHT22;5192;50.328;7.610;2023-07-22T15:52:24;28.90;1.00
10294;DHT22;5192;50.328;7.610;2023-07-22T15:54:52;28.10;1.00
10294;DHT22;5192;50.328;7.610;2023-07-22T15:57:19;27.70;1.00
10294;DHT22;5192;50.328;7.610;2023-07-22T15:59:46;27.60;1.00
10294;DHT22;5192;50.328;7.610;2023-07-22T16:02:14;27.90;1.00
10294;DHT22;5192;50.328;7.610;2023-07-22T16:04:41;28.30;1.00